sensor_id;sensor_type;location;lat;lon;timestamp;P1;durP1;ratioP1;P2;durP2;ratioP2
62679;SDS011;48746;55.578;37.902;2022-11-20T00:00:51;20.30;;;8.23;;
62679;SDS011;48746;55.578;37.902;2022-11-20T00:03:17;15.35;;;7.93;;
62679;SDS011;48746;55.578;37.902;2022-11-20T00:05:46;18.45;;;8.23;;
62679;SDS011;48746;55.578;37.902;2022-11-20T00:08:12;17.33;;;8.88;;
62679;SDS011;48746;55.578;37.902;2022-11-20T00:10:39;16.30;;;8.07;;
62679;SDS011;48746;55.578;37.902;2022-11-20T00:13:06;15.55;;;8.73;;
62679;SDS011;48746;55.578;37.902;2022-11-20T00:15:36;17.05;;;8.25;;
62679;SDS011;48746;55.578;37.902;2022-11-20T00:18:02;14.43;;;6.93;;
62679;SDS011;48746;55.578;37.902;2022-11-20T00:20:28;14.45;;;7.40;;
62679;SDS011;48746;55.578;37.902;2022-11-20T00:22:54;14.60;;;7.40;;
62679;SDS011;48746;55.578;37.902;2022-11-20T00:32:56;12.82;;;7.28;;
62679;SDS011;48746;55.578;37.902;2022-11-20T00:38:30;14.13;;;7.30;;
62679;SDS011;48746;55.578;37.902;2022-11-20T00:40:57;13.02;;;6.70;;
62679;SDS011;48746;55.578;37.902;2022-11-20T00:43:24;12.02;;;6.47;;
62679;SDS011;48746;55.578;37.902;2022-11-20T00:45:57;17.92;;;7.72;;
62679;SDS011;48746;55.578;37.902;2022-11-20T00:48:28;13.00;;;7.25;;
62679;SDS011;48746;55.578;37.902;2022-11-20T00:50:54;13.50;;;6.32;;
62679;SDS011;48746;55.578;37.902;2022-11-20T00:53:21;12.18;;;7.18;;
62679;SDS011;48746;55.578;37.902;2022-11-20T00:55:57;11.25;;;5.85;;
62679;SDS011;48746;55.578;37.902;2022-11-20T00:58:31;12.50;;;6.50;;
62679;SDS011;48746;55.578;37.902;2022-11-20T01:03:30;14.45;;;7.05;;
62679;SDS011;48746;55.578;37.902;2022-11-20T01:06:04;14.80;;;7.20;;
62679;SDS011;48746;55.578;37.902;2022-11-20T01:08:41;12.02;;;6.90;;
62679;SDS011;48746;55.578;37.902;2022-11-20T01:11:09;14.50;;;7.47;;
62679;SDS011;48746;55.578;37.902;2022-11-20T01:13:36;13.07;;;7.25;;
62679;SDS011;48746;55.578;37.902;2022-11-20T01:16:16;13.18;;;6.65;;
62679;SDS011;48746;55.578;37.902;2022-11-20T01:18:50;12.60;;;6.70;;
62679;SDS011;48746;55.578;37.902;2022-11-20T01:21:19;12.40;;;7.47;;
62679;SDS011;48746;55.578;37.902;2022-11-20T01:23:46;9.07;;;5.88;;
62679;SDS011;48746;55.578;37.902;2022-11-20T01:37:13;14.13;;;6.97;;
62679;SDS011;48746;55.578;37.902;2022-11-20T01:39:40;13.02;;;7.68;;
62679;SDS011;48746;55.578;37.902;2022-11-20T01:42:06;14.57;;;7.43;;
62679;SDS011;48746;55.578;37.902;2022-11-20T01:44:55;13.57;;;7.85;;
62679;SDS011;48746;55.578;37.902;2022-11-20T02:07:06;8.13;;;4.38;;
62679;SDS011;48746;55.578;37.902;2022-11-20T02:20:04;12.77;;;5.70;;
62679;SDS011;48746;55.578;37.902;2022-11-20T02:22:31;11.20;;;6.65;;
62679;SDS011;48746;55.578;37.902;2022-11-20T02:25:06;12.88;;;6.72;;
62679;SDS011;48746;55.578;37.902;2022-11-20T02:27:33;10.45;;;5.82;;
62679;SDS011;48746;55.578;37.902;2022-11-20T02:30:00;7.28;;;4.25;;
62679;SDS011;48746;55.578;37.902;2022-11-20T02:32:35;9.73;;;5.63;;
62679;SDS011;48746;55.578;37.902;2022-11-20T02:35:09;10.45;;;6.20;;
62679;SDS011;48746;55.578;37.902;2022-11-20T02:37:57;8.98;;;5.03;;
62679;SDS011;48746;55.578;37.902;2022-11-20T02:40:25;10.65;;;5.88;;
62679;SDS011;48746;55.578;37.902;2022-11-20T02:42:51;11.07;;;6.40;;
62679;SDS011;48746;55.578;37.902;2022-11-20T02:45:21;10.35;;;6.05;;
62679;SDS011;48746;55.578;37.902;2022-11-20T02:47:48;12.15;;;6.03;;
62679;SDS011;48746;55.578;37.902;2022-11-20T02:50:14;11.35;;;6.65;;
62679;SDS011;48746;55.578;37.902;2022-11-20T02:52:41;12.90;;;6.45;;
62679;SDS011;48746;55.578;37.902;2022-11-20T02:55:10;10.13;;;6.20;;
62679;SDS011;48746;55.578;37.902;2022-11-20T02:57:37;10.85;;;6.28;;
62679;SDS011;48746;55.578;37.902;2022-11-20T03:00:04;13.27;;;7.05;;
62679;SDS011;48746;55.578;37.902;2022-11-20T03:02:32;10.82;;;5.93;;
62679;SDS011;48746;55.578;37.902;2022-11-20T03:04:59;9.02;;;5.70;;
62679;SDS011;48746;55.578;37.902;2022-11-20T03:07:25;12.57;;;6.50;;
62679;SDS011;48746;55.578;37.902;2022-11-20T03:09:51;12.48;;;6.40;;
62679;SDS011;48746;55.578;37.902;2022-11-20T03:12:17;11.15;;;5.45;;
62679;SDS011;48746;55.578;37.902;2022-11-20T03:14:46;13.82;;;5.85;;
62679;SDS011;48746;55.578;37.902;2022-11-20T03:17:12;10.23;;;5.75;;
62679;SDS011;48746;55.578;37.902;2022-11-20T03:19:38;11.07;;;6.15;;
62679;SDS011;48746;55.578;37.902;2022-11-20T03:22:04;11.20;;;5.72;;
62679;SDS011;48746;55.578;37.902;2022-11-20T03:24:31;10.02;;;5.75;;
62679;SDS011;48746;55.578;37.902;2022-11-20T03:26:58;10.40;;;5.82;;
62679;SDS011;48746;55.578;37.902;2022-11-20T03:29:25;9.32;;;5.55;;
62679;SDS011;48746;55.578;37.902;2022-11-20T03:31:51;11.07;;;5.50;;
62679;SDS011;48746;55.578;37.902;2022-11-20T03:34:17;9.98;;;6.07;;
62679;SDS011;48746;55.578;37.902;2022-11-20T03:36:58;11.27;;;5.68;;
62679;SDS011;48746;55.578;37.902;2022-11-20T03:41:50;11.55;;;4.90;;
62679;SDS011;48746;55.578;37.902;2022-11-20T03:44:16;12.52;;;5.45;;
62679;SDS011;48746;55.578;37.902;2022-11-20T03:46:42;11.88;;;5.78;;
62679;SDS011;48746;55.578;37.902;2022-11-20T03:49:08;11.68;;;6.38;;
62679;SDS011;48746;55.578;37.902;2022-11-20T03:51:34;8.35;;;4.65;;
62679;SDS011;48746;55.578;37.902;2022-11-20T03:54:03;10.07;;;5.72;;
62679;SDS011;48746;55.578;37.902;2022-11-20T03:56:33;11.18;;;5.90;;
62679;SDS011;48746;55.578;37.902;2022-11-20T03:59:00;13.60;;;5.60;;
62679;SDS011;48746;55.578;37.902;2022-11-20T04:01:28;12.02;;;5.50;;
62679;SDS011;48746;55.578;37.902;2022-11-20T04:03:56;8.93;;;5.45;;
62679;SDS011;48746;55.578;37.902;2022-11-20T04:06:27;10.52;;;6.38;;
62679;SDS011;48746;55.578;37.902;2022-11-20T04:08:54;12.13;;;5.93;;
62679;SDS011;48746;55.578;37.902;2022-11-20T04:11:22;11.98;;;5.68;;
62679;SDS011;48746;55.578;37.902;2022-11-20T04:13:54;9.82;;;6.10;;
62679;SDS011;48746;55.578;37.902;2022-11-20T04:16:24;9.00;;;4.97;;
62679;SDS011;48746;55.578;37.902;2022-11-20T04:18:54;10.57;;;4.85;;
62679;SDS011;48746;55.578;37.902;2022-11-20T04:21:22;9.48;;;5.65;;
62679;SDS011;48746;55.578;37.902;2022-11-20T04:23:49;11.10;;;6.07;;
62679;SDS011;48746;55.578;37.902;2022-11-20T04:26:17;10.43;;;5.43;;
62679;SDS011;48746;55.578;37.902;2022-11-20T04:28:43;9.27;;;5.45;;
62679;SDS011;48746;55.578;37.902;2022-11-20T04:31:11;9.48;;;5.25;;
62679;SDS011;48746;55.578;37.902;2022-11-20T04:33:39;11.23;;;5.80;;
62679;SDS011;48746;55.578;37.902;2022-11-20T04:36:13;13.43;;;6.32;;
62679;SDS011;48746;55.578;37.902;2022-11-20T04:38:53;10.75;;;5.82;;
62679;SDS011;48746;55.578;37.902;2022-11-20T04:41:20;9.95;;;5.53;;
62679;SDS011;48746;55.578;37.902;2022-11-20T04:43:48;10.95;;;5.57;;
62679;SDS011;48746;55.578;37.902;2022-11-20T04:46:20;10.90;;;6.00;;
62679;SDS011;48746;55.578;37.902;2022-11-20T04:48:46;13.13;;;6.80;;
62679;SDS011;48746;55.578;37.902;2022-11-20T04:51:13;9.32;;;5.53;;
62679;SDS011;48746;55.578;37.902;2022-11-20T04:53:39;10.63;;;6.18;;
62679;SDS011;48746;55.578;37.902;2022-11-20T04:56:06;10.65;;;5.55;;
62679;SDS011;48746;55.578;37.902;2022-11-20T04:58:34;10.00;;;5.10;;
62679;SDS011;48746;55.578;37.902;2022-11-20T05:01:01;13.10;;;5.75;;
62679;SDS011;48746;55.578;37.902;2022-11-20T05:03:28;10.80;;;5.72;;
62679;SDS011;48746;55.578;37.902;2022-11-20T05:06:01;11.93;;;6.35;;
62679;SDS011;48746;55.578;37.902;2022-11-20T05:08:29;10.60;;;5.70;;
62679;SDS011;48746;55.578;37.902;2022-11-20T05:11:02;10.77;;;5.97;;
62679;SDS011;48746;55.578;37.902;2022-11-20T05:13:29;11.23;;;5.53;;
62679;SDS011;48746;55.578;37.902;2022-11-20T05:16:02;12.50;;;5.85;;
62679;SDS011;48746;55.578;37.902;2022-11-20T05:18:33;11.32;;;6.05;;
62679;SDS011;48746;55.578;37.902;2022-11-20T05:20:59;11.63;;;6.20;;
62679;SDS011;48746;55.578;37.902;2022-11-20T05:23:26;13.07;;;6.88;;
62679;SDS011;48746;55.578;37.902;2022-11-20T05:25:56;9.63;;;5.63;;
62679;SDS011;48746;55.578;37.902;2022-11-20T05:28:23;11.83;;;6.40;;
62679;SDS011;48746;55.578;37.902;2022-11-20T05:30:50;12.98;;;5.85;;
62679;SDS011;48746;55.578;37.902;2022-11-20T05:33:17;12.93;;;6.07;;
62679;SDS011;48746;55.578;37.902;2022-11-20T05:35:47;14.13;;;6.47;;
62679;SDS011;48746;55.578;37.902;2022-11-20T05:38:14;13.75;;;7.10;;
62679;SDS011;48746;55.578;37.902;2022-11-20T05:40:40;11.18;;;6.13;;
62679;SDS011;48746;55.578;37.902;2022-11-20T05:43:06;13.48;;;6.60;;
62679;SDS011;48746;55.578;37.902;2022-11-20T05:45:35;12.25;;;6.32;;
62679;SDS011;48746;55.578;37.902;2022-11-20T05:48:01;13.57;;;6.70;;
62679;SDS011;48746;55.578;37.902;2022-11-20T05:50:28;11.75;;;6.40;;
62679;SDS011;48746;55.578;37.902;2022-11-20T05:52:54;12.93;;;6.10;;
62679;SDS011;48746;55.578;37.902;2022-11-20T05:55:23;12.55;;;6.75;;
62679;SDS011;48746;55.578;37.902;2022-11-20T05:57:49;12.60;;;6.40;;
62679;SDS011;48746;55.578;37.902;2022-11-20T06:00:15;11.40;;;6.63;;
62679;SDS011;48746;55.578;37.902;2022-11-20T06:02:42;15.32;;;7.07;;
62679;SDS011;48746;55.578;37.902;2022-11-20T06:05:11;13.50;;;7.30;;
62679;SDS011;48746;55.578;37.902;2022-11-20T06:07:37;14.30;;;7.05;;
62679;SDS011;48746;55.578;37.902;2022-11-20T06:10:03;16.48;;;7.07;;
62679;SDS011;48746;55.578;37.902;2022-11-20T06:12:31;11.80;;;6.30;;
62679;SDS011;48746;55.578;37.902;2022-11-20T06:15:01;11.65;;;6.43;;
62679;SDS011;48746;55.578;37.902;2022-11-20T06:17:28;12.40;;;6.43;;
62679;SDS011;48746;55.578;37.902;2022-11-20T06:19:54;15.45;;;6.80;;
62679;SDS011;48746;55.578;37.902;2022-11-20T06:22:20;12.98;;;6.55;;
62679;SDS011;48746;55.578;37.902;2022-11-20T06:24:47;10.90;;;6.45;;
62679;SDS011;48746;55.578;37.902;2022-11-20T06:27:13;12.70;;;7.18;;
62679;SDS011;48746;55.578;37.902;2022-11-20T06:29:39;14.35;;;7.13;;
62679;SDS011;48746;55.578;37.902;2022-11-20T06:32:05;12.90;;;6.45;;
62679;SDS011;48746;55.578;37.902;2022-11-20T06:34:35;15.75;;;7.97;;
62679;SDS011;48746;55.578;37.902;2022-11-20T06:37:01;13.27;;;6.97;;
62679;SDS011;48746;55.578;37.902;2022-11-20T06:39:28;14.80;;;7.20;;
62679;SDS011;48746;55.578;37.902;2022-11-20T06:41:54;15.63;;;6.95;;
62679;SDS011;48746;55.578;37.902;2022-11-20T06:44:20;13.18;;;6.70;;
62679;SDS011;48746;55.578;37.902;2022-11-20T06:46:46;14.52;;;7.10;;
62679;SDS011;48746;55.578;37.902;2022-11-20T06:49:12;10.82;;;6.45;;
62679;SDS011;48746;55.578;37.902;2022-11-20T06:51:39;16.08;;;8.20;;
62679;SDS011;48746;55.578;37.902;2022-11-20T06:54:05;16.25;;;7.38;;
62679;SDS011;48746;55.578;37.902;2022-11-20T06:56:31;16.95;;;7.10;;
62679;SDS011;48746;55.578;37.902;2022-11-20T06:58:57;15.00;;;7.22;;
62679;SDS011;48746;55.578;37.902;2022-11-20T07:01:23;15.18;;;6.82;;
62679;SDS011;48746;55.578;37.902;2022-11-20T07:03:49;12.02;;;6.68;;
62679;SDS011;48746;55.578;37.902;2022-11-20T07:06:19;13.68;;;6.97;;
62679;SDS011;48746;55.578;37.902;2022-11-20T07:08:45;14.65;;;7.75;;
62679;SDS011;48746;55.578;37.902;2022-11-20T07:11:12;13.32;;;6.93;;
62679;SDS011;48746;55.578;37.902;2022-11-20T07:13:38;14.57;;;7.20;;
62679;SDS011;48746;55.578;37.902;2022-11-20T07:16:08;14.55;;;7.78;;
62679;SDS011;48746;55.578;37.902;2022-11-20T07:18:34;14.35;;;7.13;;
62679;SDS011;48746;55.578;37.902;2022-11-20T07:24:12;14.80;;;7.20;;
62679;SDS011;48746;55.578;37.902;2022-11-20T07:26:38;14.00;;;7.53;;
62679;SDS011;48746;55.578;37.902;2022-11-20T07:29:04;16.63;;;8.07;;
62679;SDS011;48746;55.578;37.902;2022-11-20T07:31:30;18.55;;;7.78;;
62679;SDS011;48746;55.578;37.902;2022-11-20T07:33:57;16.20;;;8.07;;
62679;SDS011;48746;55.578;37.902;2022-11-20T07:39:29;14.55;;;7.70;;
62679;SDS011;48746;55.578;37.902;2022-11-20T07:41:56;15.75;;;8.52;;
62679;SDS011;48746;55.578;37.902;2022-11-20T07:44:22;18.55;;;8.82;;
62679;SDS011;48746;55.578;37.902;2022-11-20T07:46:48;16.60;;;8.35;;
62679;SDS011;48746;55.578;37.902;2022-11-20T07:49:14;18.33;;;8.68;;
62679;SDS011;48746;55.578;37.902;2022-11-20T07:51:40;15.77;;;8.23;;
62679;SDS011;48746;55.578;37.902;2022-11-20T07:54:06;19.67;;;9.63;;
62679;SDS011;48746;55.578;37.902;2022-11-20T07:56:35;15.35;;;8.43;;
62679;SDS011;48746;55.578;37.902;2022-11-20T07:59:01;18.20;;;8.68;;
62679;SDS011;48746;55.578;37.902;2022-11-20T08:01:28;19.70;;;8.55;;
62679;SDS011;48746;55.578;37.902;2022-11-20T08:03:55;20.63;;;8.55;;
62679;SDS011;48746;55.578;37.902;2022-11-20T08:06:24;17.55;;;8.30;;
62679;SDS011;48746;55.578;37.902;2022-11-20T08:08:50;18.00;;;8.10;;
62679;SDS011;48746;55.578;37.902;2022-11-20T08:11:16;19.58;;;8.27;;
62679;SDS011;48746;55.578;37.902;2022-11-20T08:14:01;16.17;;;8.27;;
62679;SDS011;48746;55.578;37.902;2022-11-20T08:16:40;18.85;;;8.77;;
62679;SDS011;48746;55.578;37.902;2022-11-20T08:19:08;22.63;;;10.30;;
62679;SDS011;48746;55.578;37.902;2022-11-20T08:21:34;16.65;;;8.43;;
62679;SDS011;48746;55.578;37.902;2022-11-20T08:24:00;17.05;;;8.88;;
62679;SDS011;48746;55.578;37.902;2022-11-20T08:26:31;20.40;;;9.55;;
62679;SDS011;48746;55.578;37.902;2022-11-20T08:28:57;18.83;;;9.07;;
62679;SDS011;48746;55.578;37.902;2022-11-20T08:31:24;21.55;;;11.55;;
62679;SDS011;48746;55.578;37.902;2022-11-20T08:33:52;18.48;;;8.88;;
62679;SDS011;48746;55.578;37.902;2022-11-20T08:36:22;19.02;;;9.32;;
62679;SDS011;48746;55.578;37.902;2022-11-20T08:38:50;16.38;;;9.07;;
62679;SDS011;48746;55.578;37.902;2022-11-20T08:41:17;17.52;;;9.48;;
62679;SDS011;48746;55.578;37.902;2022-11-20T08:43:49;22.13;;;9.75;;
62679;SDS011;48746;55.578;37.902;2022-11-20T08:46:16;18.13;;;9.52;;
62679;SDS011;48746;55.578;37.902;2022-11-20T08:48:43;26.70;;;12.65;;
62679;SDS011;48746;55.578;37.902;2022-11-20T08:51:09;17.17;;;9.23;;
62679;SDS011;48746;55.578;37.902;2022-11-20T08:53:37;18.45;;;9.93;;
62679;SDS011;48746;55.578;37.902;2022-11-20T08:56:07;20.17;;;10.02;;
62679;SDS011;48746;55.578;37.902;2022-11-20T08:58:33;20.40;;;10.23;;
62679;SDS011;48746;55.578;37.902;2022-11-20T09:00:59;24.60;;;11.20;;
62679;SDS011;48746;55.578;37.902;2022-11-20T09:03:25;24.95;;;11.88;;
62679;SDS011;48746;55.578;37.902;2022-11-20T09:06:02;23.20;;;10.80;;
62679;SDS011;48746;55.578;37.902;2022-11-20T09:08:30;21.65;;;10.30;;
62679;SDS011;48746;55.578;37.902;2022-11-20T09:10:57;24.27;;;10.88;;
62679;SDS011;48746;55.578;37.902;2022-11-20T09:13:25;26.60;;;11.32;;
62679;SDS011;48746;55.578;37.902;2022-11-20T09:15:56;22.30;;;10.48;;
62679;SDS011;48746;55.578;37.902;2022-11-20T09:18:23;20.55;;;10.23;;
62679;SDS011;48746;55.578;37.902;2022-11-20T09:20:49;23.23;;;11.32;;
62679;SDS011;48746;55.578;37.902;2022-11-20T09:23:16;24.27;;;11.93;;
62679;SDS011;48746;55.578;37.902;2022-11-20T09:25:45;22.08;;;11.43;;
62679;SDS011;48746;55.578;37.902;2022-11-20T09:28:11;23.35;;;11.57;;
62679;SDS011;48746;55.578;37.902;2022-11-20T09:30:39;27.08;;;11.80;;
62679;SDS011;48746;55.578;37.902;2022-11-20T09:33:05;24.65;;;12.27;;
62679;SDS011;48746;55.578;37.902;2022-11-20T09:35:35;25.55;;;11.70;;
62679;SDS011;48746;55.578;37.902;2022-11-20T09:38:07;25.65;;;11.75;;
62679;SDS011;48746;55.578;37.902;2022-11-20T09:40:34;24.05;;;11.38;;
62679;SDS011;48746;55.578;37.902;2022-11-20T09:50:52;34.50;;;15.90;;
62679;SDS011;48746;55.578;37.902;2022-11-20T09:56:03;35.42;;;16.00;;
62679;SDS011;48746;55.578;37.902;2022-11-20T09:58:35;34.85;;;15.02;;
62679;SDS011;48746;55.578;37.902;2022-11-20T10:01:13;31.15;;;15.05;;
62679;SDS011;48746;55.578;37.902;2022-11-20T10:29:07;44.90;;;16.90;;
62679;SDS011;48746;55.578;37.902;2022-11-20T10:37:00;39.08;;;16.35;;
62679;SDS011;48746;55.578;37.902;2022-11-20T10:39:35;37.25;;;17.00;;
62679;SDS011;48746;55.578;37.902;2022-11-20T10:42:17;43.33;;;17.60;;
62679;SDS011;48746;55.578;37.902;2022-11-20T10:50:59;35.60;;;14.63;;
62679;SDS011;48746;55.578;37.902;2022-11-20T10:53:57;36.33;;;14.73;;
62679;SDS011;48746;55.578;37.902;2022-11-20T11:02:22;36.63;;;15.07;;
62679;SDS011;48746;55.578;37.902;2022-11-20T11:04:52;46.42;;;16.90;;
62679;SDS011;48746;55.578;37.902;2022-11-20T11:07:23;44.20;;;15.32;;
62679;SDS011;48746;55.578;37.902;2022-11-20T11:09:56;39.05;;;16.00;;
62679;SDS011;48746;55.578;37.902;2022-11-20T11:12:27;37.90;;;15.02;;
62679;SDS011;48746;55.578;37.902;2022-11-20T11:22:42;34.88;;;16.17;;
62679;SDS011;48746;55.578;37.902;2022-11-20T11:25:20;37.03;;;15.77;;
62679;SDS011;48746;55.578;37.902;2022-11-20T11:28:03;40.03;;;16.38;;
62679;SDS011;48746;55.578;37.902;2022-11-20T11:30:40;49.03;;;16.35;;
62679;SDS011;48746;55.578;37.902;2022-11-20T11:33:12;48.00;;;17.15;;
62679;SDS011;48746;55.578;37.902;2022-11-20T11:35:49;38.90;;;16.42;;
62679;SDS011;48746;55.578;37.902;2022-11-20T11:38:23;40.90;;;16.58;;
62679;SDS011;48746;55.578;37.902;2022-11-20T11:41:04;38.83;;;15.32;;
62679;SDS011;48746;55.578;37.902;2022-11-20T11:43:35;37.70;;;14.63;;
62679;SDS011;48746;55.578;37.902;2022-11-20T11:48:59;40.40;;;17.88;;
62679;SDS011;48746;55.578;37.902;2022-11-20T11:51:58;38.50;;;16.13;;
62679;SDS011;48746;55.578;37.902;2022-11-20T12:00:16;36.45;;;14.75;;
62679;SDS011;48746;55.578;37.902;2022-11-20T12:13:39;21.58;;;9.95;;
62679;SDS011;48746;55.578;37.902;2022-11-20T12:19:34;18.35;;;9.85;;
62679;SDS011;48746;55.578;37.902;2022-11-20T12:27:54;19.80;;;10.13;;
62679;SDS011;48746;55.578;37.902;2022-11-20T12:31:02;21.90;;;9.88;;
62679;SDS011;48746;55.578;37.902;2022-11-20T12:36:40;18.75;;;10.68;;
62679;SDS011;48746;55.578;37.902;2022-11-20T12:39:33;22.90;;;10.23;;
62679;SDS011;48746;55.578;37.902;2022-11-20T12:42:06;22.45;;;10.38;;
62679;SDS011;48746;55.578;37.902;2022-11-20T12:51:09;20.63;;;10.32;;
62679;SDS011;48746;55.578;37.902;2022-11-20T13:01:52;27.13;;;12.10;;
62679;SDS011;48746;55.578;37.902;2022-11-20T13:07:25;26.33;;;12.00;;
62679;SDS011;48746;55.578;37.902;2022-11-20T13:09:52;27.25;;;12.15;;
62679;SDS011;48746;55.578;37.902;2022-11-20T13:20:19;28.67;;;12.77;;
62679;SDS011;48746;55.578;37.902;2022-11-20T13:22:46;30.35;;;13.13;;
62679;SDS011;48746;55.578;37.902;2022-11-20T13:28:39;27.73;;;12.20;;
62679;SDS011;48746;55.578;37.902;2022-11-20T13:31:09;27.27;;;13.48;;
62679;SDS011;48746;55.578;37.902;2022-11-20T13:33:49;28.15;;;13.40;;
62679;SDS011;48746;55.578;37.902;2022-11-20T13:36:21;29.45;;;13.15;;
62679;SDS011;48746;55.578;37.902;2022-11-20T13:38:51;21.75;;;11.10;;
62679;SDS011;48746;55.578;37.902;2022-11-20T13:41:26;20.92;;;11.13;;
62679;SDS011;48746;55.578;37.902;2022-11-20T13:44:05;21.33;;;11.23;;
62679;SDS011;48746;55.578;37.902;2022-11-20T13:49:43;22.20;;;10.40;;
62679;SDS011;48746;55.578;37.902;2022-11-20T14:01:00;32.55;;;14.43;;
62679;SDS011;48746;55.578;37.902;2022-11-20T14:03:34;35.08;;;15.02;;
62679;SDS011;48746;55.578;37.902;2022-11-20T14:06:02;38.08;;;16.05;;
62679;SDS011;48746;55.578;37.902;2022-11-20T14:11:29;34.17;;;15.95;;
62679;SDS011;48746;55.578;37.902;2022-11-20T14:16:30;38.80;;;16.60;;
62679;SDS011;48746;55.578;37.902;2022-11-20T14:22:35;38.53;;;16.00;;
62679;SDS011;48746;55.578;37.902;2022-11-20T14:28:01;44.78;;;18.15;;
62679;SDS011;48746;55.578;37.902;2022-11-20T14:30:39;44.30;;;17.73;;
62679;SDS011;48746;55.578;37.902;2022-11-20T14:33:09;40.65;;;16.20;;
62679;SDS011;48746;55.578;37.902;2022-11-20T14:38:43;37.22;;;16.95;;
62679;SDS011;48746;55.578;37.902;2022-11-20T14:41:20;40.92;;;16.92;;
62679;SDS011;48746;55.578;37.902;2022-11-20T14:43:49;38.90;;;18.10;;
62679;SDS011;48746;55.578;37.902;2022-11-20T14:49:26;40.30;;;17.17;;
62679;SDS011;48746;55.578;37.902;2022-11-20T14:51:59;43.47;;;19.05;;
62679;SDS011;48746;55.578;37.902;2022-11-20T14:54:26;44.10;;;19.05;;
62679;SDS011;48746;55.578;37.902;2022-11-20T14:56:54;49.78;;;19.20;;
62679;SDS011;48746;55.578;37.902;2022-11-20T14:59:22;48.88;;;18.90;;
62679;SDS011;48746;55.578;37.902;2022-11-20T15:02:01;69.95;;;21.58;;
62679;SDS011;48746;55.578;37.902;2022-11-20T15:04:47;42.28;;;18.77;;
62679;SDS011;48746;55.578;37.902;2022-11-20T15:07:24;49.95;;;19.58;;
62679;SDS011;48746;55.578;37.902;2022-11-20T15:10:02;46.08;;;20.08;;
62679;SDS011;48746;55.578;37.902;2022-11-20T15:12:31;55.72;;;20.38;;
62679;SDS011;48746;55.578;37.902;2022-11-20T15:15:01;58.95;;;20.10;;
62679;SDS011;48746;55.578;37.902;2022-11-20T15:19:56;47.10;;;18.75;;
62679;SDS011;48746;55.578;37.902;2022-11-20T15:22:22;53.70;;;19.45;;
62679;SDS011;48746;55.578;37.902;2022-11-20T15:24:51;51.08;;;19.10;;
62679;SDS011;48746;55.578;37.902;2022-11-20T15:27:17;49.10;;;19.00;;
62679;SDS011;48746;55.578;37.902;2022-11-20T15:29:44;50.13;;;19.83;;
62679;SDS011;48746;55.578;37.902;2022-11-20T15:32:10;52.33;;;19.50;;
62679;SDS011;48746;55.578;37.902;2022-11-20T15:34:36;55.70;;;19.35;;
62679;SDS011;48746;55.578;37.902;2022-11-20T15:37:02;47.30;;;19.20;;
62679;SDS011;48746;55.578;37.902;2022-11-20T15:39:28;51.92;;;18.70;;
62679;SDS011;48746;55.578;37.902;2022-11-20T15:41:55;49.45;;;19.77;;
62679;SDS011;48746;55.578;37.902;2022-11-20T15:44:21;52.08;;;19.42;;
62679;SDS011;48746;55.578;37.902;2022-11-20T15:46:47;47.53;;;19.67;;
62679;SDS011;48746;55.578;37.902;2022-11-20T15:49:14;52.85;;;21.25;;
62679;SDS011;48746;55.578;37.902;2022-11-20T15:51:44;53.88;;;20.17;;
62679;SDS011;48746;55.578;37.902;2022-11-20T15:56:40;61.53;;;23.80;;
62679;SDS011;48746;55.578;37.902;2022-11-20T15:59:07;59.42;;;23.73;;
62679;SDS011;48746;55.578;37.902;2022-11-20T16:01:33;62.30;;;24.35;;
62679;SDS011;48746;55.578;37.902;2022-11-20T16:04:00;59.30;;;24.98;;
62679;SDS011;48746;55.578;37.902;2022-11-20T16:06:26;71.80;;;26.92;;
62679;SDS011;48746;55.578;37.902;2022-11-20T16:08:53;74.72;;;28.40;;
62679;SDS011;48746;55.578;37.902;2022-11-20T16:11:19;67.28;;;28.27;;
62679;SDS011;48746;55.578;37.902;2022-11-20T16:13:45;74.82;;;30.05;;
62679;SDS011;48746;55.578;37.902;2022-11-20T16:16:38;69.63;;;26.20;;
62679;SDS011;48746;55.578;37.902;2022-11-20T16:19:08;78.85;;;28.42;;
62679;SDS011;48746;55.578;37.902;2022-11-20T16:21:36;74.40;;;29.25;;
62679;SDS011;48746;55.578;37.902;2022-11-20T16:24:04;75.93;;;28.65;;
62679;SDS011;48746;55.578;37.902;2022-11-20T16:26:31;70.13;;;28.10;;
62679;SDS011;48746;55.578;37.902;2022-11-20T16:28:59;66.22;;;28.50;;
62679;SDS011;48746;55.578;37.902;2022-11-20T16:31:25;64.90;;;25.52;;
62679;SDS011;48746;55.578;37.902;2022-11-20T16:33:53;63.20;;;23.17;;
62679;SDS011;48746;55.578;37.902;2022-11-20T16:39:27;56.63;;;21.80;;
62679;SDS011;48746;55.578;37.902;2022-11-20T16:41:54;68.00;;;25.40;;
62679;SDS011;48746;55.578;37.902;2022-11-20T16:44:20;69.63;;;24.42;;
62679;SDS011;48746;55.578;37.902;2022-11-20T16:46:47;67.38;;;24.05;;
62679;SDS011;48746;55.578;37.902;2022-11-20T16:49:13;71.55;;;26.00;;
62679;SDS011;48746;55.578;37.902;2022-11-20T16:51:39;77.15;;;28.15;;
62679;SDS011;48746;55.578;37.902;2022-11-20T16:54:06;68.25;;;26.60;;
62679;SDS011;48746;55.578;37.902;2022-11-20T16:56:33;62.72;;;25.73;;
62679;SDS011;48746;55.578;37.902;2022-11-20T16:58:59;66.45;;;23.98;;
62679;SDS011;48746;55.578;37.902;2022-11-20T17:01:27;73.18;;;25.50;;
62679;SDS011;48746;55.578;37.902;2022-11-20T17:03:57;71.10;;;25.27;;
62679;SDS011;48746;55.578;37.902;2022-11-20T17:09:32;66.57;;;25.13;;
62679;SDS011;48746;55.578;37.902;2022-11-20T17:11:59;66.95;;;26.02;;
62679;SDS011;48746;55.578;37.902;2022-11-20T17:14:28;67.80;;;24.35;;
62679;SDS011;48746;55.578;37.902;2022-11-20T17:16:54;65.50;;;24.33;;
62679;SDS011;48746;55.578;37.902;2022-11-20T17:19:20;59.80;;;22.13;;
62679;SDS011;48746;55.578;37.902;2022-11-20T17:21:46;60.95;;;22.27;;
62679;SDS011;48746;55.578;37.902;2022-11-20T17:24:13;63.67;;;22.60;;
62679;SDS011;48746;55.578;37.902;2022-11-20T17:26:41;58.85;;;22.23;;
62679;SDS011;48746;55.578;37.902;2022-11-20T17:29:12;63.50;;;21.88;;
62679;SDS011;48746;55.578;37.902;2022-11-20T17:31:39;64.07;;;22.83;;
62679;SDS011;48746;55.578;37.902;2022-11-20T17:34:09;56.75;;;20.50;;
62679;SDS011;48746;55.578;37.902;2022-11-20T17:39:43;64.63;;;20.20;;
62679;SDS011;48746;55.578;37.902;2022-11-20T17:42:10;56.83;;;19.88;;
62679;SDS011;48746;55.578;37.902;2022-11-20T17:47:58;48.10;;;17.48;;
62679;SDS011;48746;55.578;37.902;2022-11-20T17:50:24;41.80;;;17.85;;
62679;SDS011;48746;55.578;37.902;2022-11-20T17:52:50;54.72;;;19.48;;
62679;SDS011;48746;55.578;37.902;2022-11-20T17:58:39;45.35;;;17.42;;
62679;SDS011;48746;55.578;37.902;2022-11-20T18:01:05;46.40;;;18.35;;
62679;SDS011;48746;55.578;37.902;2022-11-20T18:03:32;52.92;;;18.88;;
62679;SDS011;48746;55.578;37.902;2022-11-20T18:09:05;50.70;;;19.65;;
62679;SDS011;48746;55.578;37.902;2022-11-20T18:11:33;54.42;;;20.42;;
62679;SDS011;48746;55.578;37.902;2022-11-20T18:14:01;49.75;;;19.20;;
62679;SDS011;48746;55.578;37.902;2022-11-20T18:16:47;53.10;;;19.95;;
62679;SDS011;48746;55.578;37.902;2022-11-20T18:19:17;59.30;;;21.00;;
62679;SDS011;48746;55.578;37.902;2022-11-20T18:21:45;46.17;;;19.23;;
62679;SDS011;48746;55.578;37.902;2022-11-20T18:24:11;45.45;;;18.80;;
62679;SDS011;48746;55.578;37.902;2022-11-20T18:26:37;42.78;;;17.60;;